createdAt,value
2022-08-18T00:01:24.525Z,6.55
2022-08-18T00:03:56.064Z,6.88
2022-08-18T00:06:29.547Z,6.70
2022-08-18T00:09:00.294Z,7.03
2022-08-18T00:11:41.044Z,6.53
2022-08-18T00:14:21.429Z,6.95
2022-08-18T00:16:53.360Z,6.75
2022-08-18T00:19:45.582Z,6.70
2022-08-18T00:22:15.135Z,7.13
2022-08-18T00:24:47.639Z,6.88
2022-08-18T00:27:21.581Z,6.70
2022-08-18T00:29:51.175Z,6.35
2022-08-18T00:32:24.144Z,7.20
2022-08-18T00:34:53.713Z,6.50
2022-08-18T00:37:22.082Z,7.43
2022-08-18T00:39:53.030Z,7.45
2022-08-18T00:42:27.477Z,7.90
2022-08-18T00:45:02.784Z,6.80
2022-08-18T00:47:41.327Z,6.88
2022-08-18T00:50:39.432Z,7.63
2022-08-18T00:53:17.752Z,7.27
2022-08-18T00:55:53.998Z,7.53
2022-08-18T00:58:35.726Z,7.38
2022-08-18T01:01:06.970Z,7.22
2022-08-18T01:03:39.753Z,6.90
2022-08-18T01:06:32.618Z,7.47
2022-08-18T01:09:00.271Z,7.30
2022-08-18T01:11:28.590Z,7.38
2022-08-18T01:13:55.731Z,7.07
2022-08-18T01:16:53.814Z,6.95
2022-08-18T01:19:45.984Z,7.47
2022-08-18T01:22:58.304Z,7.07
2022-08-18T01:25:51.386Z,7.13
2022-08-18T01:28:20.687Z,7.28
2022-08-18T01:30:55.716Z,7.28
2022-08-18T01:33:22.732Z,7.65
2022-08-18T01:35:57.432Z,6.97
2022-08-18T01:38:26.178Z,7.25
2022-08-18T01:41:22.453Z,7.68
2022-08-18T01:43:41.451Z,7.80
2022-08-18T01:46:08.972Z,7.75
2022-08-18T01:48:38.013Z,7.35
2022-08-18T01:51:08.054Z,7.93
2022-08-18T01:53:36.524Z,7.65
2022-08-18T01:56:05.704Z,7.72
2022-08-18T01:58:34.813Z,8.40
2022-08-18T02:01:02.446Z,7.88
2022-08-18T02:03:35.967Z,8.02
2022-08-18T02:06:07.202Z,7.90
2022-08-18T02:08:35.005Z,8.07
2022-08-18T02:11:03.538Z,8.05
2022-08-18T02:13:31.204Z,8.40
2022-08-18T02:15:58.148Z,8.73
2022-08-18T02:18:47.245Z,7.90
2022-08-18T02:21:19.172Z,7.88
2022-08-18T02:23:49.231Z,8.23
2022-08-18T02:26:21.167Z,8.18
2022-08-18T02:28:48.301Z,8.48
2022-08-18T02:31:19.636Z,8.27
2022-08-18T02:33:52.064Z,7.93
2022-08-18T02:36:21.078Z,7.88
2022-08-18T02:38:54.870Z,8.13
2022-08-18T02:41:29.898Z,8.27
2022-08-18T02:43:58.651Z,8.25
2022-08-18T02:46:30.130Z,8.52
2022-08-18T02:49:01.743Z,8.27
2022-08-18T02:51:28.950Z,8.13
2022-08-18T02:53:59.771Z,8.65
2022-08-18T02:56:40.504Z,8.38
2022-08-18T02:59:16.557Z,8.48
2022-08-18T03:01:48.176Z,8.55
2022-08-18T03:04:23.007Z,8.52
2022-08-18T03:06:56.308Z,9.63
2022-08-18T03:09:23.445Z,8.77
2022-08-18T03:11:50.370Z,8.40
2022-08-18T03:14:17.484Z,8.30
2022-08-18T03:16:54.590Z,8.77
2022-08-18T03:19:28.701Z,8.68
2022-08-18T03:22:03.073Z,8.63
2022-08-18T03:24:32.329Z,8.25
2022-08-18T03:27:05.905Z,8.05
2022-08-18T03:29:34.266Z,8.57
2022-08-18T03:32:04.540Z,8.82
2022-08-18T03:34:32.394Z,9.27
2022-08-18T03:37:00.995Z,8.90
2022-08-18T03:39:29.109Z,9.02
2022-08-18T03:42:00.982Z,9.07
2022-08-18T03:44:33.027Z,9.10
2022-08-18T03:47:02.970Z,9.30
2022-08-18T03:49:33.807Z,8.80
2022-08-18T03:52:01.636Z,8.80
2022-08-18T03:54:33.443Z,9.30
2022-08-18T03:57:00.580Z,9.20
2022-08-18T03:59:30.738Z,9.07
2022-08-18T04:01:57.841Z,9.05
2022-08-18T04:04:27.632Z,9.43
2022-08-18T04:07:17.510Z,8.30
2022-08-18T04:09:45.711Z,8.73
2022-08-18T04:12:16.552Z,9.85
2022-08-18T04:14:49.187Z,9.35
2022-08-18T04:17:25.117Z,8.30
2022-08-18T04:19:54.789Z,9.80
2022-08-18T04:22:23.054Z,9.10
2022-08-18T04:24:50.632Z,9.18
2022-08-18T04:27:20.411Z,8.88
2022-08-18T04:29:47.923Z,9.52
2022-08-18T04:32:15.140Z,9.52
2022-08-18T04:34:42.408Z,10.00
2022-08-18T04:37:09.846Z,9.18
2022-08-18T04:39:37.736Z,9.63
2022-08-18T04:42:06.084Z,9.02
2022-08-18T04:44:34.689Z,10.25
2022-08-18T04:47:02.296Z,9.13
2022-08-18T04:49:30.287Z,9.23
2022-08-18T04:52:36.485Z,8.90
2022-08-18T04:55:05.894Z,9.30
2022-08-18T04:57:34.742Z,9.07
2022-08-18T05:00:05.150Z,8.52
2022-08-18T05:02:33.029Z,9.07
2022-08-18T05:05:04.388Z,8.63
2022-08-18T05:07:31.612Z,10.18
2022-08-18T05:09:58.583Z,9.07
2022-08-18T05:12:26.639Z,10.00
2022-08-18T05:14:56.683Z,9.30
2022-08-18T05:17:29.079Z,10.38
2022-08-18T05:19:58.872Z,8.27
2022-08-18T05:22:30.479Z,8.55
2022-08-18T05:24:58.878Z,9.43
2022-08-18T05:27:25.774Z,9.05
2022-08-18T05:29:52.723Z,8.95
2022-08-18T05:32:41.831Z,8.88
2022-08-18T05:35:31.802Z,9.50
2022-08-18T05:38:18.013Z,9.73
2022-08-18T05:40:49.901Z,9.23
2022-08-18T05:43:18.255Z,9.27
2022-08-18T05:45:45.301Z,8.43
2022-08-18T05:48:14.222Z,9.20
2022-08-18T05:50:41.436Z,9.50
2022-08-18T05:53:14.667Z,8.82
2022-08-18T05:56:19.999Z,9.98
2022-08-18T05:58:52.139Z,9.75
2022-08-18T06:01:25.794Z,8.80
2022-08-18T06:04:02.000Z,9.40
2022-08-18T06:06:31.309Z,9.18
2022-08-18T06:09:33.248Z,8.90
2022-08-18T06:12:17.424Z,9.48
2022-08-18T06:14:44.717Z,9.90
2022-08-18T06:17:43.803Z,9.73
2022-08-18T06:20:28.386Z,10.02
2022-08-18T06:23:32.868Z,10.40
2022-08-18T06:26:10.572Z,9.05
2022-08-18T06:29:25.138Z,10.38
2022-08-18T06:32:24.504Z,9.32
2022-08-18T06:35:04.432Z,9.98
2022-08-18T06:37:57.253Z,9.93
2022-08-18T06:40:24.807Z,9.57
2022-08-18T06:42:51.790Z,10.52
2022-08-18T06:45:24.806Z,10.02
2022-08-18T06:48:36.101Z,9.73
2022-08-18T06:51:07.465Z,10.45
2022-08-18T06:54:00.364Z,10.00
2022-08-18T06:56:39.410Z,9.55
2022-08-18T06:59:27.690Z,10.63
2022-08-18T07:02:20.034Z,9.88
2022-08-18T07:05:05.728Z,9.10
2022-08-18T07:07:40.862Z,9.18
2022-08-18T07:10:14.629Z,10.25
2022-08-18T07:13:12.731Z,10.25
2022-08-18T07:15:40.601Z,10.18
2022-08-18T07:18:10.109Z,9.10
2022-08-18T07:20:57.949Z,9.25
2022-08-18T07:23:38.549Z,9.52
2022-08-18T07:26:19.154Z,9.93
2022-08-18T07:28:49.992Z,9.35
2022-08-18T07:31:40.276Z,8.73
2022-08-18T07:34:47.922Z,8.95
2022-08-18T07:37:42.329Z,9.30
2022-08-18T07:40:36.067Z,9.27
2022-08-18T07:43:11.511Z,9.70
2022-08-18T07:45:44.485Z,9.45
2022-08-18T07:48:41.310Z,9.65
2022-08-18T07:51:43.383Z,10.02
2022-08-18T07:55:00.121Z,8.98
2022-08-18T07:57:45.220Z,9.88
2022-08-18T08:00:55.369Z,9.68
2022-08-18T08:03:35.390Z,8.82
2022-08-18T08:06:20.568Z,9.95
2022-08-18T08:09:05.925Z,9.43
2022-08-18T08:11:46.986Z,10.00
2022-08-18T08:14:16.661Z,9.15
2022-08-18T08:16:50.127Z,8.65
2022-08-18T08:19:59.417Z,9.75
2022-08-18T08:23:17.856Z,8.75
2022-08-18T08:25:52.588Z,8.90
2022-08-18T08:28:52.474Z,8.50
2022-08-18T08:31:42.448Z,8.90
2022-08-18T08:34:26.031Z,8.45
2022-08-18T08:37:04.997Z,9.00
2022-08-18T08:39:57.801Z,9.13
2022-08-18T08:43:01.349Z,10.45
2022-08-18T08:45:37.000Z,8.32
2022-08-18T08:48:21.311Z,8.35
2022-08-18T08:51:06.322Z,9.25
2022-08-18T08:53:43.861Z,8.88
2022-08-18T08:56:16.566Z,8.75
2022-08-18T08:58:49.912Z,9.15
2022-08-18T09:01:44.275Z,8.90
2022-08-18T09:05:09.981Z,8.60
2022-08-18T09:08:10.910Z,8.20
2022-08-18T09:10:59.246Z,8.25
2022-08-18T09:13:51.946Z,8.27
2022-08-18T09:16:24.591Z,8.43
2022-08-18T09:19:16.333Z,7.78
2022-08-18T09:22:37.254Z,7.90
2022-08-18T09:25:29.698Z,7.47
2022-08-18T09:28:16.417Z,7.70
2022-08-18T09:31:02.344Z,7.03
2022-08-18T09:36:25.943Z,6.28
2022-08-18T09:43:13.069Z,7.00
2022-08-18T09:45:47.250Z,7.25
2022-08-18T09:48:20.778Z,6.30
2022-08-18T09:51:23.548Z,6.72
2022-08-18T09:53:53.780Z,6.82
2022-08-18T09:56:53.807Z,6.13
2022-08-18T09:59:45.378Z,7.32
2022-08-18T10:02:36.827Z,6.45
2022-08-18T10:05:20.239Z,6.57
2022-08-18T10:08:07.220Z,6.40
2022-08-18T10:14:04.826Z,6.57
2022-08-18T10:17:44.625Z,6.00
2022-08-18T10:20:52.361Z,5.32
2022-08-18T10:24:15.178Z,6.10
2022-08-18T10:26:54.821Z,9.90
2022-08-18T10:31:58.546Z,5.68
2022-08-18T10:34:52.343Z,5.57
2022-08-18T10:37:42.213Z,5.68
2022-08-18T10:40:13.230Z,4.85
2022-08-18T10:42:59.932Z,6.07
2022-08-18T10:45:39.016Z,5.15
2022-08-18T10:48:24.329Z,6.07
2022-08-18T10:51:11.629Z,5.60
2022-08-18T10:53:55.443Z,5.88
2022-08-18T10:57:23.157Z,6.38
2022-08-18T11:00:02.234Z,6.65
2022-08-18T11:03:40.054Z,7.10
2022-08-18T11:06:17.952Z,7.28
2022-08-18T11:08:55.042Z,6.82
2022-08-18T11:11:33.760Z,7.20
2022-08-18T11:14:54.805Z,7.35
2022-08-18T11:18:06.418Z,6.13
2022-08-18T11:20:40.253Z,6.55
2022-08-18T11:23:17.482Z,6.28
2022-08-18T11:25:45.217Z,6.68
2022-08-18T11:28:30.294Z,6.75
2022-08-18T11:30:59.669Z,6.30
2022-08-18T11:33:28.160Z,7.22
2022-08-18T11:35:58.150Z,6.15
2022-08-18T11:41:26.366Z,6.63
2022-08-18T11:44:20.960Z,6.32
2022-08-18T11:46:52.007Z,5.57
2022-08-18T11:49:33.349Z,5.65
2022-08-18T11:52:19.843Z,5.80
2022-08-18T11:55:14.722Z,5.90
2022-08-18T12:00:47.928Z,4.85
2022-08-18T12:06:29.843Z,4.70
2022-08-18T12:09:07.154Z,5.13
2022-08-18T12:11:41.225Z,4.95
2022-08-18T12:14:32.589Z,4.85
2022-08-18T12:17:02.953Z,4.28
2022-08-18T12:19:34.410Z,4.78
2022-08-18T12:22:14.276Z,4.97
2022-08-18T12:24:41.392Z,4.50
2022-08-18T12:27:12.247Z,4.40
2022-08-18T12:29:53.920Z,4.32
2022-08-18T12:32:56.367Z,4.88
2022-08-18T12:35:13.011Z,4.20
2022-08-18T12:38:08.270Z,4.57
2022-08-18T12:40:34.068Z,5.05
2022-08-18T12:43:01.209Z,4.72
2022-08-18T12:45:30.805Z,4.40
2022-08-18T12:47:59.906Z,5.00
2022-08-18T12:50:31.416Z,4.85
2022-08-18T12:53:02.512Z,4.35
2022-08-18T12:55:35.153Z,4.35
2022-08-18T12:58:05.331Z,4.13
2022-08-18T13:00:33.631Z,4.07
2022-08-18T13:03:01.221Z,4.07
2022-08-18T13:05:29.812Z,4.50
2022-08-18T13:08:04.626Z,3.45
2022-08-18T13:10:45.194Z,4.30
2022-08-18T13:13:17.078Z,4.13
2022-08-18T13:15:58.356Z,4.38
2022-08-18T13:18:27.314Z,4.28
2022-08-18T13:21:00.149Z,4.32
2022-08-18T13:23:28.418Z,4.30
2022-08-18T13:25:59.321Z,4.28
2022-08-18T13:28:33.470Z,4.00
2022-08-18T13:33:34.801Z,4.45
2022-08-18T13:36:20.544Z,4.38
2022-08-18T13:38:54.708Z,4.18
2022-08-18T13:41:23.331Z,4.38
2022-08-18T13:43:50.594Z,4.45
2022-08-18T13:46:24.404Z,4.45
2022-08-18T13:48:59.893Z,6.10
2022-08-18T13:51:29.435Z,4.50
2022-08-18T13:54:17.917Z,4.43
2022-08-18T13:56:51.994Z,4.20
2022-08-18T13:59:23.645Z,4.45
2022-08-18T14:01:53.143Z,4.63
2022-08-18T14:04:23.048Z,4.65
2022-08-18T14:06:59.156Z,4.20
2022-08-18T14:09:37.115Z,4.55
2022-08-18T14:12:22.559Z,4.60
2022-08-18T14:14:55.320Z,5.82
2022-08-18T14:17:25.214Z,5.85
2022-08-18T14:20:21.551Z,5.38
2022-08-18T14:23:11.789Z,5.57
2022-08-18T14:25:59.864Z,6.07
2022-08-18T14:28:29.417Z,6.82
2022-08-18T14:30:58.977Z,6.70
2022-08-18T14:33:49.406Z,6.03
2022-08-18T14:36:17.397Z,5.82
2022-08-18T14:38:45.324Z,6.55
2022-08-18T14:41:14.171Z,6.10
2022-08-18T14:44:10.895Z,5.93
2022-08-18T14:46:33.095Z,6.20
2022-08-18T14:49:03.982Z,5.20
2022-08-18T14:51:33.618Z,5.18
2022-08-18T14:54:02.188Z,5.03
2022-08-18T14:56:29.397Z,5.28
2022-08-18T14:58:56.939Z,5.07
2022-08-18T15:01:26.573Z,5.00
2022-08-18T15:03:54.399Z,5.50
2022-08-18T15:06:23.078Z,7.07
2022-08-18T15:08:57.022Z,5.22
2022-08-18T15:11:24.957Z,8.38
2022-08-18T15:13:55.020Z,7.95
2022-08-18T15:16:27.131Z,6.30
2022-08-18T15:19:00.366Z,5.85
2022-08-18T15:21:47.841Z,4.82
2022-08-18T15:24:39.785Z,5.10
2022-08-18T15:27:10.407Z,11.23
2022-08-18T15:29:46.623Z,6.40
2022-08-18T15:32:15.240Z,26.45
2022-08-18T15:34:46.640Z,9.27
2022-08-18T15:37:20.301Z,5.53
2022-08-18T15:40:21.720Z,5.53
2022-08-18T15:43:04.126Z,5.38
2022-08-18T15:45:43.281Z,5.22
2022-08-18T15:48:26.067Z,4.80
2022-08-18T15:50:53.013Z,5.28
2022-08-18T15:53:25.492Z,6.20
2022-08-18T15:55:57.354Z,5.15
2022-08-18T15:58:26.707Z,5.28
2022-08-18T16:00:59.067Z,5.47
2022-08-18T16:03:27.588Z,5.90
2022-08-18T16:05:56.142Z,5.80
2022-08-18T16:08:25.607Z,5.55
2022-08-18T16:10:53.700Z,5.10
2022-08-18T16:13:22.116Z,5.20
2022-08-18T16:15:50.196Z,5.05
2022-08-18T16:18:21.178Z,5.50
2022-08-18T16:20:48.762Z,5.35
2022-08-18T16:23:19.861Z,5.28
2022-08-18T16:25:47.027Z,5.35
2022-08-18T16:28:13.897Z,5.80
2022-08-18T16:30:41.613Z,7.10
2022-08-18T16:33:08.768Z,7.40
2022-08-18T16:35:37.274Z,6.78
2022-08-18T16:38:09.097Z,7.43
2022-08-18T16:40:37.635Z,7.85
2022-08-18T16:43:07.224Z,8.85
2022-08-18T16:45:37.587Z,8.18
2022-08-18T16:48:07.433Z,8.88
2022-08-18T16:50:35.725Z,8.73
2022-08-18T16:53:02.620Z,8.30
2022-08-18T16:55:30.634Z,9.18
2022-08-18T16:58:16.365Z,9.85
2022-08-18T17:01:02.815Z,9.93
2022-08-18T17:03:48.258Z,10.27
2022-08-18T17:06:19.093Z,9.43
2022-08-18T17:08:47.039Z,8.95
2022-08-18T17:11:18.875Z,8.60
2022-08-18T17:13:49.727Z,8.85
2022-08-18T17:16:19.892Z,10.30
2022-08-18T17:18:48.156Z,9.15
2022-08-18T17:21:20.182Z,9.55
2022-08-18T17:23:47.895Z,10.18
2022-08-18T17:26:42.781Z,9.10
2022-08-18T17:29:22.857Z,9.77
2022-08-18T17:32:03.713Z,9.50
2022-08-18T17:34:41.950Z,9.98
2022-08-18T17:37:14.445Z,9.95
2022-08-18T17:40:02.341Z,9.93
2022-08-18T17:42:31.260Z,10.02
2022-08-18T17:45:07.642Z,10.10
2022-08-18T17:48:03.290Z,10.50
2022-08-18T17:51:00.914Z,11.77
2022-08-18T17:53:31.496Z,10.52
2022-08-18T17:56:08.081Z,11.05
2022-08-18T18:02:31.115Z,10.20
2022-08-18T18:05:11.036Z,10.20
2022-08-18T18:07:53.116Z,10.77
2022-08-18T18:10:25.845Z,12.20
2022-08-18T18:13:24.597Z,11.27
2022-08-18T18:15:55.747Z,11.68
2022-08-18T18:18:34.292Z,10.68
2022-08-18T18:21:21.455Z,10.82
2022-08-18T18:24:14.226Z,11.15
2022-08-18T18:26:47.956Z,11.32
2022-08-18T18:29:37.391Z,11.27
2022-08-18T18:32:30.573Z,11.75
2022-08-18T18:35:23.795Z,10.07
2022-08-18T18:38:24.333Z,10.02
2022-08-18T18:41:02.455Z,10.55
2022-08-18T18:43:47.187Z,11.52
2022-08-18T18:46:29.772Z,11.15
2022-08-18T18:49:23.368Z,10.90
2022-08-18T18:51:55.970Z,10.80
2022-08-18T18:55:01.721Z,10.57
2022-08-18T18:58:15.874Z,9.90
2022-08-18T19:00:53.607Z,11.18
2022-08-18T19:03:41.410Z,11.52
2022-08-18T19:06:17.389Z,11.07
2022-08-18T19:09:06.634Z,10.07
2022-08-18T19:11:43.181Z,11.05
2022-08-18T19:14:28.437Z,19.85
2022-08-18T19:17:13.298Z,11.88
2022-08-18T19:19:59.625Z,10.73
2022-08-18T19:22:38.773Z,10.80
2022-08-18T19:25:19.526Z,10.73
2022-08-18T19:27:54.125Z,10.07
2022-08-18T19:30:22.072Z,11.18
2022-08-18T19:33:03.088Z,11.95
2022-08-18T19:35:58.716Z,10.63
2022-08-18T19:38:36.749Z,11.27
2022-08-18T19:41:39.563Z,10.88
2022-08-18T19:44:35.489Z,10.40
2022-08-18T19:47:33.617Z,10.60
2022-08-18T19:50:17.040Z,11.10
2022-08-18T19:53:34.458Z,11.13
2022-08-18T19:56:27.909Z,9.77
2022-08-18T19:59:24.074Z,9.65
2022-08-18T20:02:12.380Z,17.08
2022-08-18T20:05:20.685Z,11.10
2022-08-18T20:08:12.777Z,10.45
2022-08-18T20:11:21.298Z,11.27
2022-08-18T20:14:13.589Z,10.40
2022-08-18T20:16:45.080Z,10.85
2022-08-18T20:19:57.456Z,9.50
2022-08-18T20:22:25.059Z,9.93
2022-08-18T20:25:05.879Z,9.68
2022-08-18T20:27:42.871Z,9.38
2022-08-18T20:30:26.974Z,9.65
2022-08-18T20:33:18.125Z,9.63
2022-08-18T20:36:03.399Z,9.23
2022-08-18T20:38:53.826Z,9.20
2022-08-18T20:41:24.788Z,9.02
2022-08-18T20:44:29.504Z,9.18
2022-08-18T20:47:21.106Z,8.65
2022-08-18T20:50:23.369Z,8.93
2022-08-18T20:53:26.279Z,9.52
2022-08-18T20:56:43.926Z,9.68
2022-08-18T20:59:21.853Z,9.45
2022-08-18T21:02:07.246Z,9.85
2022-08-18T21:04:49.283Z,9.65
2022-08-18T21:08:17.739Z,10.18
2022-08-18T21:10:49.780Z,10.73
2022-08-18T21:13:41.619Z,9.65
2022-08-18T21:16:38.308Z,10.95
2022-08-18T21:19:24.999Z,10.75
2022-08-18T21:21:58.844Z,11.02
2022-08-18T21:24:43.045Z,10.90
2022-08-18T21:27:31.065Z,10.50
2022-08-18T21:30:04.570Z,9.68
2022-08-18T21:32:36.265Z,10.85
2022-08-18T21:35:26.620Z,10.63
2022-08-18T21:38:11.781Z,10.93
2022-08-18T21:40:47.263Z,10.48
2022-08-18T21:43:55.503Z,10.75
2022-08-18T21:46:30.422Z,10.32
2022-08-18T21:49:02.472Z,10.60
2022-08-18T21:51:37.122Z,10.73
2022-08-18T21:54:04.569Z,10.15
2022-08-18T21:56:36.175Z,10.07
2022-08-18T21:59:19.149Z,10.77
2022-08-18T22:01:54.484Z,11.45
2022-08-18T22:04:26.744Z,10.02
2022-08-18T22:06:59.206Z,9.55
2022-08-18T22:09:49.511Z,10.48
2022-08-18T22:12:49.395Z,11.13
2022-08-18T22:15:44.218Z,11.20
2022-08-18T22:18:17.821Z,10.77
2022-08-18T22:20:58.930Z,10.68
2022-08-18T22:23:55.750Z,10.57
2022-08-18T22:26:30.802Z,10.35
2022-08-18T22:29:07.436Z,10.35
2022-08-18T22:31:45.284Z,10.70
2022-08-18T22:34:27.158Z,10.73
2022-08-18T22:37:19.212Z,10.60
2022-08-18T22:39:54.434Z,10.73
2022-08-18T22:42:26.365Z,11.35
2022-08-18T22:44:53.657Z,10.73
2022-08-18T22:47:20.867Z,10.55
2022-08-18T22:49:48.037Z,10.80
2022-08-18T22:52:31.145Z,10.98
2022-08-18T22:55:00.587Z,10.05
2022-08-18T22:57:34.448Z,10.18
2022-08-18T23:00:12.192Z,10.15
2022-08-18T23:02:40.395Z,10.52
2022-08-18T23:05:07.828Z,10.13
2022-08-18T23:07:35.198Z,10.27
2022-08-18T23:10:03.423Z,9.70
2022-08-18T23:12:35.191Z,10.18
2022-08-18T23:15:09.842Z,9.80
2022-08-18T23:17:37.321Z,9.73
2022-08-18T23:20:08.715Z,10.00
2022-08-18T23:22:39.741Z,10.35
2022-08-18T23:25:09.453Z,10.13
2022-08-18T23:27:36.879Z,10.32
2022-08-18T23:30:05.256Z,9.90
2022-08-18T23:32:33.362Z,10.00
2022-08-18T23:35:00.821Z,9.85
2022-08-18T23:37:28.992Z,10.25
2022-08-18T23:39:56.101Z,10.18
2022-08-18T23:42:23.900Z,9.68
2022-08-18T23:44:50.829Z,10.70
2022-08-18T23:47:19.638Z,11.00
2022-08-18T23:49:46.855Z,10.25
2022-08-18T23:52:13.876Z,10.45
2022-08-18T23:54:40.985Z,10.48
2022-08-18T23:57:07.875Z,11.20
2022-08-18T23:59:34.963Z,10.18
